Nerstrand, Minnesota
Current Conditions -  °F | °C
As of 12:34 PM on Saturday 20 Dec 2014 (Local Time) from KSYN Reporting Station
Haze Haze  
Wind Chill: 26°   Ceiling: 700
Heat Index: 32°   Visibility: 3mi
Dew Point: 29°   Wind: 6mph
Humidity: 90%   Direction: 180°S
Pressure: 30.13"   Gusts: NA
Location:  44.34°N, 93.07°W
Report Text: KSYN 201834Z AUTO 18005KT 3SM BR OVC007 00/M01 A3013 RMK AO2 T00001015
Loading
Personal Weather Stations






























Interactive Weather Map New forecast layout! Learn more

10-Day Weather Forecast

Advertisements
Track Severe Weather on mobile